Details From DNMA - MAIDUGURI
To DAAT - TAMANRASSET
Flight Number -
Tags decoded
Created
Modified
Stats Distance 846 nm / 1,567 km
Max Altitude 0 ft / 0 m
Waypoints 4
Social Downloads 1
Likes 0
Share VATSIM

Download

Looking for another format? Having issues loading an existing format? Contact us
Advertisement - Login to hide

Notes

Requested: DNMA UA605 GALNA UG854 ZR UA604 AS DAAT Unmatched points: UA605 GALNA UG854 UA604

Route

DNMA ZR AS DAAT

ID Type Via Altitude Latitude Longitude Leg Dist Tot Dist Heading (true) Name
O DNMA APT - 0 ft / 0 m 11.85524˚ 13.08129˚ - 0 nm - MAIDUGURI
ZR VOR - 0 ft / 0 m 13.77058˚ 8.97239˚ 266 nm 266 nm 296° / 295° ZINDER VOR
AS NDB - 0 ft / 0 m 16.95633˚ 7.97483˚ 199 nm 466 nm 343° / 343° AGADES NDB
O DAAT APT - 0 ft / 0 m 22.81038˚ 5.44440˚ 379 nm 846 nm 338° / 337° TAMANRASSET

Altitude Profile

Advertisement - Login to hide

Weather


0- 5 10 15 20 25 30 35+ Temperature / ° C

Clouds and Precipitation
Forecast for 2017-12-13 00:00 UTC. Updated an hour ago

Ground ~20,000 ft ~40,000 ft Winds

DNMA

Details ICAO DNMA (MIU)
Name MAIDUGURI
Region Nigeria
Timezone Africa/Lagos (UTC+1.0)
Stats Elevation 1,099 ft / 335 m (AMSL)
Location 11.855243° 13.081285°
Runways 1
Magnetic Variation 0.781° E

METAR

Not found

TAF

TAF DNMA 121540Z 1218/1324 07010KT CAVOK

Decode

Departure Runways

ID Width Length Bearing (true) Bearing (mag) Surface Threshold Offset Overrun Length
05 197 ft / 60 m 9,866 ft / 3,007 m 46.51° 45.73° Asphalt 0 ft / 0 m 333 ft / 102 m
23 197 ft / 60 m 9,866 ft / 3,007 m 226.51° 225.73° Asphalt 0 ft / 0 m 336 ft / 102 m

DAAT

Details ICAO DAAT (TMR)
Name TAMANRASSET
Region Algeria
Timezone Africa/Algiers (UTC+1.0)
Stats Elevation 4,518 ft / 1,377 m (AMSL)
Location 22.810384° 5.444403°
Runways 2
Magnetic Variation 0.600° E

METAR

DAAT 122200Z 13002KT CAVOK 10/M10 Q1023

Decode

TAF

TAF DAAT 121700Z 1218/1318 09012KT CAVOK BECMG 1312/1315 17010KT

Decode

Destination Runways

ID Width Length Bearing (true) Bearing (mag) Surface Threshold Offset Overrun Length
02 148 ft / 45 m 11,884 ft / 3,622 m 22.21° 21.61° Asphalt 0 ft / 0 m 0 ft / 0 m
08 148 ft / 45 m 10,169 ft / 3,099 m 81.74° 81.14° Asphalt 0 ft / 0 m 0 ft / 0 m
20 148 ft / 45 m 11,884 ft / 3,622 m 202.22° 201.62° Asphalt 0 ft / 0 m 0 ft / 0 m
26 148 ft / 45 m 10,169 ft / 3,099 m 261.75° 261.15° Asphalt 0 ft / 0 m 0 ft / 0 m

Popular Alternatives